Palmdale, Pennsylvania
Current Conditions -  °F | °C
As of 8:56 PM on Monday 20 Oct 2014 (Local Time) from KMDT Reporting Station
Overcast Overcast  
Wind Chill: 57°   Ceiling: 12000
Heat Index: 57°   Visibility: 10mi
Dew Point: 45°   Wind: 6mph
Humidity: 64%   Direction: 220°SW
Pressure: 29.94"   Gusts: NA
Location:  40.2634°N, 76.626°W
Report Text: KMDT 210056Z 22005KT 10SM SCT080 BKN120 OVC150 14/07 A2994 RMK AO2 SLP139 T01390072
Loading
Personal Weather Stations






























Interactive Weather Map
Tropical Storm Tracking
New forecast layout! Learn more

10-Day Weather Forecast

Advertisements
Track Severe Weather on mobile